Shirley, Illinois
Current Conditions -  °F | °C
As of 1:56 PM on Wednesday 28 Jan 2015 (Local Time) from KBMI Reporting Station
Clear Clear  
Wind Chill: 27°   Ceiling: Unl
Heat Index: 38°   Visibility: 10mi
Dew Point: 31°   Wind: 22mph
Humidity: 76%   Direction: 160°SSE
Pressure: 30.07"   Gusts: 28mph
Location:  40.41°N, 89.06°W
Report Text: KBMI 281956Z 16019G24KT 10SM CLR 03/M01 A3007 RMK AO2 T00331005 PK WND 16027/1937 SLP199
Loading
Personal Weather Stations






























Interactive Weather Map New forecast layout! Learn more

10-Day Weather Forecast

Advertisements
Track Severe Weather on mobile